Time;durP1;ratioP1;P1;durP2;ratioP2;P2;SDS_P1;SDS_P2;PMS_P1;PMS_P2;Temp;Humidity;BMP_temperature;BMP_pressure;BME280_temperature;BME280_humidity;BME280_pressure;Samples;Min_cycle;Max_cycle;Signal;HPM_P1;HPM_P2
2021/08/13 00:01:11;;;;;;;7.10;6.00;;;18.10;99.90;;;;;;492208;241;28836;-70
2021/08/13 00:03:13;;;;;;;6.50;5.90;;;18.10;99.90;;;;;;492285;241;28879;-70
2021/08/13 00:05:13;;;;;;;5.57;5.07;;;18.20;99.90;;;;;;492272;241;28832;-72
2021/08/13 00:07:14;;;;;;;7.30;5.93;;;18.20;99.90;;;;;;492340;241;28863;-72
2021/08/13 00:09:16;;;;;;;6.77;5.70;;;18.20;99.90;;;;;;492327;241;28721;-72
2021/08/13 00:11:17;;;;;;;6.30;5.70;;;18.10;99.90;;;;;;492323;241;28748;-71
2021/08/13 00:13:18;;;;;;;6.60;5.93;;;18.10;99.90;;;;;;492266;241;28796;-72
2021/08/13 00:15:19;;;;;;;5.67;5.13;;;18.10;99.90;;;;;;492218;241;29307;-71
2021/08/13 00:17:21;;;;;;;5.53;5.03;;;18.10;99.90;;;;;;492283;241;29168;-71
2021/08/13 00:19:22;;;;;;;6.50;5.43;;;18.10;99.90;;;;;;492305;241;29369;-72
2021/08/13 00:21:23;;;;;;;5.53;5.03;;;18.00;99.90;;;;;;492338;241;28825;-72
2021/08/13 00:23:24;;;;;;;11.03;6.43;;;18.10;99.90;;;;;;492316;240;28887;-70
2021/08/13 00:25:26;;;;;;;9.43;6.60;;;17.90;99.90;;;;;;492338;241;28913;-72
2021/08/13 00:27:27;;;;;;;6.60;5.83;;;17.90;99.90;;;;;;492313;241;28818;-71
2021/08/13 00:29:28;;;;;;;7.93;6.53;;;17.90;99.90;;;;;;492335;241;28808;-70
2021/08/13 00:31:29;;;;;;;7.80;6.00;;;18.00;99.90;;;;;;492356;241;28777;-69
2021/08/13 00:33:31;;;;;;;8.50;6.33;;;18.10;99.90;;;;;;492323;241;28819;-70
2021/08/13 00:35:32;;;;;;;6.03;5.43;;;18.10;99.90;;;;;;492334;241;28824;-70
2021/08/13 00:37:33;;;;;;;6.70;6.00;;;18.20;99.90;;;;;;492324;241;29217;-72
2021/08/13 00:39:34;;;;;;;6.63;5.93;;;18.30;99.90;;;;;;492310;241;29362;-71
2021/08/13 00:41:36;;;;;;;7.23;6.10;;;18.30;99.90;;;;;;492400;241;29235;-71
2021/08/13 00:43:37;;;;;;;7.70;5.40;;;18.20;99.90;;;;;;492279;241;29313;-71
2021/08/13 00:45:38;;;;;;;6.23;5.43;;;18.20;99.90;;;;;;492325;241;28833;-70
2021/08/13 00:47:39;;;;;;;7.00;6.13;;;18.20;99.90;;;;;;492345;241;28877;-71
2021/08/13 00:49:41;;;;;;;8.90;5.27;;;18.20;99.90;;;;;;492350;241;28824;-70
2021/08/13 00:51:42;;;;;;;7.67;5.37;;;18.20;99.90;;;;;;492366;241;28888;-70
2021/08/13 00:53:43;;;;;;;6.37;5.77;;;18.30;99.90;;;;;;492318;241;28860;-69
2021/08/13 00:55:44;;;;;;;6.13;5.37;;;18.30;99.90;;;;;;492355;241;28884;-70
2021/08/13 00:57:46;;;;;;;7.70;5.87;;;18.30;99.90;;;;;;492335;241;28757;-70
2021/08/13 00:59:47;;;;;;;6.40;5.80;;;18.30;99.90;;;;;;492346;241;28827;-70
2021/08/13 01:01:48;;;;;;;5.97;5.37;;;18.20;99.90;;;;;;492349;241;28810;-69
2021/08/13 01:03:49;;;;;;;5.73;5.10;;;18.20;99.90;;;;;;492320;241;29365;-70
2021/08/13 01:05:51;;;;;;;7.00;5.83;;;18.20;99.90;;;;;;492340;241;29290;-70
2021/08/13 01:07:52;;;;;;;5.80;5.10;;;18.20;99.90;;;;;;492332;241;29234;-70
2021/08/13 01:09:53;;;;;;;7.40;6.10;;;18.20;99.90;;;;;;492289;241;28819;-70
2021/08/13 01:11:54;;;;;;;7.93;5.50;;;18.30;99.90;;;;;;492276;241;28917;-70
2021/08/13 01:13:56;;;;;;;6.90;5.67;;;18.30;99.90;;;;;;492330;241;28852;-70
2021/08/13 01:15:57;;;;;;;6.30;5.30;;;18.30;99.90;;;;;;492214;241;28816;-70
2021/08/13 01:17:58;;;;;;;5.50;5.00;;;18.30;99.90;;;;;;492331;241;28848;-70
2021/08/13 01:19:59;;;;;;;6.30;5.70;;;18.30;99.90;;;;;;492289;241;28917;-69
2021/08/13 01:22:01;;;;;;;6.27;5.67;;;18.30;99.90;;;;;;492319;241;28724;-70
2021/08/13 01:24:02;;;;;;;6.60;5.90;;;18.20;99.90;;;;;;492311;241;28891;-70
2021/08/13 01:26:03;;;;;;;5.03;4.63;;;18.20;99.90;;;;;;491866;240;28816;-70
2021/08/13 01:28:04;;;;;;;5.80;5.20;;;18.20;99.90;;;;;;492328;241;29340;-70
2021/08/13 01:30:06;;;;;;;7.20;5.50;;;18.20;99.90;;;;;;492333;241;29295;-70
2021/08/13 01:32:07;;;;;;;6.30;5.30;;;18.10;99.90;;;;;;492311;241;29505;-69
2021/08/13 01:34:08;;;;;;;5.87;5.33;;;18.10;99.90;;;;;;492306;241;28729;-70
2021/08/13 01:36:09;;;;;;;5.67;5.03;;;18.10;99.90;;;;;;492329;241;28826;-72
2021/08/13 01:38:11;;;;;;;5.93;5.27;;;18.20;99.90;;;;;;492325;241;28884;-72
2021/08/13 01:40:12;;;;;;;5.57;4.73;;;18.20;99.90;;;;;;492322;241;28920;-72
2021/08/13 01:42:13;;;;;;;5.70;5.20;;;18.10;99.90;;;;;;492299;241;29060;-72
2021/08/13 01:44:14;;;;;;;6.37;5.70;;;18.20;99.90;;;;;;492329;241;28790;-72
2021/08/13 01:46:16;;;;;;;6.03;5.43;;;18.10;99.90;;;;;;492317;241;28731;-72
2021/08/13 01:48:17;;;;;;;6.47;5.17;;;18.20;99.90;;;;;;492334;241;28938;-72
2021/08/13 01:50:18;;;;;;;5.77;5.23;;;18.10;99.90;;;;;;492322;241;28813;-71
2021/08/13 01:52:19;;;;;;;7.97;5.67;;;18.20;99.90;;;;;;492326;241;29340;-71
2021/08/13 01:54:21;;;;;;;7.30;6.50;;;18.10;99.90;;;;;;492312;241;29149;-71
2021/08/13 01:56:22;;;;;;;7.53;6.27;;;18.10;99.90;;;;;;492308;241;29394;-71
2021/08/13 01:58:23;;;;;;;5.90;5.30;;;18.10;99.90;;;;;;492331;241;28872;-71
2021/08/13 02:00:24;;;;;;;7.30;5.87;;;18.20;99.90;;;;;;492343;241;28805;-71
2021/08/13 02:02:26;;;;;;;6.90;5.80;;;18.10;99.90;;;;;;491626;241;28931;-71
2021/08/13 02:04:27;;;;;;;6.67;6.00;;;18.20;99.90;;;;;;491952;241;28898;-71
2021/08/13 02:06:28;;;;;;;7.47;5.80;;;18.10;99.90;;;;;;492292;241;28815;-72
2021/08/13 02:08:29;;;;;;;8.20;6.40;;;18.00;99.90;;;;;;492334;241;28820;-72
2021/08/13 02:10:31;;;;;;;7.90;6.67;;;18.10;99.90;;;;;;492305;241;28823;-71
2021/08/13 02:12:32;;;;;;;9.57;6.70;;;18.30;99.90;;;;;;492317;241;28893;-71
2021/08/13 02:14:33;;;;;;;7.87;6.57;;;18.40;99.90;;;;;;492307;241;28853;-71
2021/08/13 02:16:34;;;;;;;7.77;6.17;;;18.50;99.90;;;;;;492349;241;29364;-71
2021/08/13 02:18:36;;;;;;;9.83;7.80;;;18.50;99.90;;;;;;492351;241;29269;-72
2021/08/13 02:20:37;;;;;;;10.23;7.80;;;18.60;99.90;;;;;;492355;241;29277;-72
2021/08/13 02:22:38;;;;;;;11.60;8.00;;;18.60;99.90;;;;;;492333;241;28917;-72
2021/08/13 02:24:40;;;;;;;8.73;7.63;;;18.70;99.90;;;;;;492319;241;28784;-71
2021/08/13 02:26:41;;;;;;;8.80;7.43;;;18.70;99.90;;;;;;492351;241;28818;-71
2021/08/13 02:28:42;;;;;;;8.20;7.20;;;18.80;99.90;;;;;;492349;241;28874;-72
2021/08/13 02:30:43;;;;;;;9.50;7.60;;;18.80;99.90;;;;;;492324;241;28834;-71
2021/08/13 02:32:45;;;;;;;9.60;7.83;;;18.80;99.90;;;;;;492342;241;29267;-70
2021/08/13 02:34:46;;;;;;;7.53;6.73;;;18.80;99.90;;;;;;492316;241;28775;-69
2021/08/13 02:36:47;;;;;;;8.47;7.40;;;18.80;99.90;;;;;;492301;241;28833;-69
2021/08/13 02:38:48;;;;;;;7.00;6.30;;;18.90;99.90;;;;;;492282;241;29325;-70
2021/08/13 02:40:50;;;;;;;7.80;6.60;;;18.90;99.90;;;;;;492266;241;29253;-71
2021/08/13 02:42:51;;;;;;;7.93;5.83;;;18.80;99.90;;;;;;492306;241;30098;-72
2021/08/13 02:44:52;;;;;;;8.70;6.23;;;18.70;99.90;;;;;;492315;241;28792;-71
2021/08/13 02:46:53;;;;;;;7.73;6.87;;;18.60;99.90;;;;;;492318;241;28813;-71
2021/08/13 02:48:55;;;;;;;7.97;7.00;;;18.30;99.90;;;;;;492325;241;28772;-70
2021/08/13 02:50:56;;;;;;;8.67;7.77;;;18.20;99.90;;;;;;492296;241;28818;-71
2021/08/13 02:52:57;;;;;;;8.93;7.20;;;18.10;99.90;;;;;;491979;241;29151;-70
2021/08/13 02:54:58;;;;;;;8.03;6.70;;;18.20;99.90;;;;;;492207;241;28881;-70
2021/08/13 02:57:00;;;;;;;7.53;6.73;;;18.20;99.90;;;;;;491947;241;28806;-70
2021/08/13 02:59:01;;;;;;;8.77;6.70;;;18.20;99.90;;;;;;492285;241;28880;-70
2021/08/13 03:01:02;;;;;;;9.33;7.10;;;18.10;99.90;;;;;;492292;241;28727;-69
2021/08/13 03:03:03;;;;;;;7.10;6.33;;;18.10;99.90;;;;;;492316;241;29219;-71
2021/08/13 03:05:05;;;;;;;7.83;6.90;;;18.00;99.90;;;;;;492301;241;29233;-71
2021/08/13 03:07:06;;;;;;;7.17;6.07;;;18.00;99.90;;;;;;492309;241;29324;-72
2021/08/13 03:09:07;;;;;;;8.00;6.97;;;17.90;99.90;;;;;;492303;241;29351;-72
2021/08/13 03:11:08;;;;;;;8.83;6.20;;;17.80;99.90;;;;;;492299;241;28787;-71
2021/08/13 03:13:10;;;;;;;10.03;7.03;;;17.70;99.90;;;;;;492301;241;28816;-72
2021/08/13 03:15:11;;;;;;;8.10;7.03;;;17.80;99.90;;;;;;492272;241;28727;-71
2021/08/13 03:17:12;;;;;;;8.40;6.73;;;17.80;99.90;;;;;;492299;241;28820;-72
2021/08/13 03:19:13;;;;;;;7.90;7.10;;;17.90;99.90;;;;;;492332;241;28787;-69
2021/08/13 03:21:15;;;;;;;10.00;7.00;;;17.90;99.90;;;;;;492293;241;28758;-71
2021/08/13 03:23:16;;;;;;;7.50;6.20;;;17.90;99.90;;;;;;492308;241;28919;-71
2021/08/13 03:25:17;;;;;;;7.60;6.70;;;18.00;99.90;;;;;;492301;241;28713;-72
2021/08/13 03:27:18;;;;;;;7.43;6.67;;;18.00;99.90;;;;;;492337;240;29265;-71
2021/08/13 03:29:20;;;;;;;8.30;6.33;;;17.90;99.90;;;;;;492303;241;29924;-71
2021/08/13 03:31:21;;;;;;;11.20;6.50;;;17.90;99.90;;;;;;492322;241;29226;-71
2021/08/13 03:33:22;;;;;;;9.70;7.23;;;17.90;99.90;;;;;;492312;241;28837;-72
2021/08/13 03:35:23;;;;;;;8.60;7.70;;;17.90;99.90;;;;;;492260;241;28791;-72
2021/08/13 03:37:25;;;;;;;7.60;6.70;;;18.00;99.90;;;;;;492319;241;28798;-72
2021/08/13 03:39:26;;;;;;;7.30;6.53;;;17.90;99.90;;;;;;492273;241;28702;-72
2021/08/13 03:41:27;;;;;;;9.30;6.93;;;17.90;99.90;;;;;;492313;241;28831;-72
2021/08/13 03:43:28;;;;;;;8.30;7.10;;;17.90;99.90;;;;;;492332;241;28960;-72
2021/08/13 03:45:30;;;;;;;6.60;5.70;;;18.00;99.90;;;;;;492314;240;28695;-72
2021/08/13 03:47:31;;;;;;;7.50;6.70;;;18.00;99.90;;;;;;492222;241;28811;-71
2021/08/13 03:49:32;;;;;;;7.80;6.83;;;18.00;99.90;;;;;;492284;241;29353;-72
2021/08/13 03:51:33;;;;;;;7.70;6.90;;;17.90;99.90;;;;;;492299;241;29293;-69
2021/08/13 03:53:35;;;;;;;7.33;6.63;;;17.90;99.90;;;;;;492299;241;29292;-71
2021/08/13 03:55:36;;;;;;;8.73;7.00;;;17.90;99.90;;;;;;492319;241;29256;-72
2021/08/13 03:57:37;;;;;;;9.23;7.73;;;17.80;99.90;;;;;;492326;241;28894;-71
2021/08/13 03:59:38;;;;;;;10.90;8.13;;;17.70;99.90;;;;;;492348;241;28833;-71
2021/08/13 04:01:40;;;;;;;9.47;7.87;;;17.70;99.90;;;;;;492347;241;28820;-71
2021/08/13 04:03:41;;;;;;;9.70;7.67;;;17.80;99.90;;;;;;492323;238;28835;-72
2021/08/13 04:05:42;;;;;;;9.13;7.13;;;17.90;99.90;;;;;;492317;241;28802;-71
2021/08/13 04:07:43;;;;;;;8.80;6.90;;;17.90;99.90;;;;;;492304;241;28825;-71
2021/08/13 04:09:45;;;;;;;8.33;7.07;;;18.00;99.90;;;;;;492333;241;28861;-71
2021/08/13 04:11:46;;;;;;;7.07;6.37;;;18.00;99.90;;;;;;492331;241;28787;-73
2021/08/13 04:13:47;;;;;;;7.33;6.63;;;18.00;99.90;;;;;;492301;241;29440;-72
2021/08/13 04:15:48;;;;;;;6.70;6.00;;;18.00;99.90;;;;;;492267;241;29139;-70
2021/08/13 04:17:50;;;;;;;8.87;6.77;;;18.10;99.90;;;;;;492315;241;29225;-70
2021/08/13 04:19:51;;;;;;;7.80;6.47;;;18.00;99.90;;;;;;492272;241;29299;-72
2021/08/13 04:21:52;;;;;;;8.90;5.87;;;18.00;99.90;;;;;;492321;241;28743;-73
2021/08/13 04:23:53;;;;;;;7.90;6.90;;;18.00;99.90;;;;;;492325;241;28899;-72
2021/08/13 04:25:55;;;;;;;7.63;6.83;;;18.00;99.90;;;;;;492328;241;28794;-72
2021/08/13 04:27:56;;;;;;;7.83;6.50;;;17.80;99.90;;;;;;492324;241;28798;-72
2021/08/13 04:29:57;;;;;;;7.13;6.43;;;17.80;99.90;;;;;;492342;241;28830;-70
2021/08/13 04:31:58;;;;;;;7.37;6.57;;;17.70;99.90;;;;;;492341;241;28786;-69
2021/08/13 04:34:00;;;;;;;6.73;6.03;;;17.70;99.90;;;;;;492317;241;28895;-69
2021/08/13 04:36:01;;;;;;;8.57;6.90;;;17.70;99.90;;;;;;492288;241;28853;-72
2021/08/13 04:38:02;;;;;;;9.00;6.57;;;17.60;99.90;;;;;;492336;241;29246;-71
2021/08/13 04:40:03;;;;;;;7.17;6.07;;;17.70;99.90;;;;;;492264;241;29314;-71
2021/08/13 04:42:05;;;;;;;7.80;6.60;;;17.60;99.90;;;;;;492318;240;29229;-71
2021/08/13 04:44:06;;;;;;;6.97;6.33;;;17.70;99.90;;;;;;492329;241;29280;-71
2021/08/13 04:46:07;;;;;;;6.90;5.90;;;17.60;99.90;;;;;;492317;240;28721;-71
2021/08/13 04:48:08;;;;;;;7.87;6.17;;;17.70;99.90;;;;;;492317;241;28852;-71
2021/08/13 04:50:10;;;;;;;6.43;5.83;;;17.60;99.90;;;;;;492334;241;28907;-72
2021/08/13 04:52:11;;;;;;;7.10;6.40;;;17.60;99.90;;;;;;492318;241;28867;-71
2021/08/13 04:54:12;;;;;;;8.77;6.57;;;17.70;99.90;;;;;;492321;241;28833;-72
2021/08/13 04:56:13;;;;;;;6.80;6.10;;;17.60;99.90;;;;;;492329;241;28834;-71
2021/08/13 04:58:15;;;;;;;7.90;6.17;;;17.60;99.90;;;;;;492338;241;28801;-71
2021/08/13 05:00:16;;;;;;;7.10;6.40;;;17.60;99.90;;;;;;492333;241;28855;-71
2021/08/13 05:02:17;;;;;;;6.83;6.13;;;17.60;99.90;;;;;;492331;241;29312;-71
2021/08/13 05:04:18;;;;;;;6.77;5.90;;;17.60;99.90;;;;;;492305;241;29395;-71
2021/08/13 05:06:20;;;;;;;8.00;6.70;;;17.60;99.90;;;;;;492311;241;29406;-71
2021/08/13 05:08:21;;;;;;;6.93;6.20;;;17.70;99.90;;;;;;492324;241;29314;-72
2021/08/13 05:10:22;;;;;;;7.43;5.60;;;17.60;99.90;;;;;;492333;241;28896;-73
2021/08/13 05:12:23;;;;;;;5.93;5.30;;;17.70;99.90;;;;;;492323;241;28780;-71
2021/08/13 05:14:25;;;;;;;7.13;5.90;;;17.70;99.90;;;;;;492326;238;28868;-69
2021/08/13 05:16:26;;;;;;;6.77;5.63;;;17.70;99.90;;;;;;492127;241;28823;-69
2021/08/13 05:18:27;;;;;;;6.03;5.43;;;17.80;99.90;;;;;;492346;241;28896;-71
2021/08/13 05:20:28;;;;;;;5.90;5.33;;;17.90;99.90;;;;;;492329;241;28816;-70
2021/08/13 05:22:32;;;;;;;6.73;6.03;;;17.90;99.90;;;;;;492337;238;28769;-72
2021/08/13 05:24:31;;;;;;;7.47;6.30;;;17.90;99.90;;;;;;492170;241;28815;-72
2021/08/13 05:26:32;;;;;;;6.10;5.50;;;17.90;99.90;;;;;;492321;241;29325;-72
2021/08/13 05:28:33;;;;;;;5.83;5.33;;;18.00;99.90;;;;;;492335;241;29331;-72
2021/08/13 05:30:35;;;;;;;6.23;5.60;;;18.00;99.90;;;;;;492319;241;29297;-72
2021/08/13 05:32:36;;;;;;;6.43;5.80;;;18.00;99.90;;;;;;492323;241;29308;-72
2021/08/13 05:34:37;;;;;;;7.10;6.40;;;18.00;99.90;;;;;;492304;241;28945;-73
2021/08/13 05:36:38;;;;;;;7.33;6.63;;;18.00;99.90;;;;;;492331;241;28848;-71
2021/08/13 05:38:40;;;;;;;9.70;5.93;;;18.00;99.90;;;;;;492346;241;28785;-72
2021/08/13 05:40:41;;;;;;;7.87;7.07;;;18.10;99.90;;;;;;492322;237;28801;-72
2021/08/13 05:42:42;;;;;;;9.30;7.40;;;18.10;99.90;;;;;;492322;241;28679;-70
2021/08/13 05:44:43;;;;;;;9.50;7.07;;;18.20;99.90;;;;;;492300;241;28821;-72
2021/08/13 05:46:45;;;;;;;8.43;7.50;;;18.30;99.90;;;;;;492324;240;28832;-71
2021/08/13 05:48:46;;;;;;;7.80;6.60;;;18.40;99.90;;;;;;492352;241;28795;-70
2021/08/13 05:50:47;;;;;;;7.23;6.53;;;18.50;99.90;;;;;;492326;241;28832;-69
2021/08/13 05:52:48;;;;;;;9.17;6.93;;;18.50;99.90;;;;;;492334;241;29310;-71
2021/08/13 05:54:50;;;;;;;7.10;6.40;;;18.60;99.90;;;;;;492283;241;29330;-69
2021/08/13 05:56:51;;;;;;;7.60;6.40;;;18.70;99.90;;;;;;492323;241;29314;-72
2021/08/13 05:58:54;;;;;;;6.77;6.07;;;18.70;99.90;;;;;;492328;241;28820;-72
2021/08/13 06:00:53;;;;;;;6.57;5.87;;;18.80;99.90;;;;;;492186;241;28920;-70
2021/08/13 06:02:55;;;;;;;6.57;5.90;;;18.80;99.90;;;;;;492311;241;28784;-71
2021/08/13 06:04:56;;;;;;;7.30;5.90;;;18.90;99.90;;;;;;492286;241;28797;-69
2021/08/13 06:06:57;;;;;;;5.77;5.23;;;19.00;99.90;;;;;;492241;241;28833;-72
2021/08/13 06:08:58;;;;;;;6.93;5.97;;;19.00;99.90;;;;;;492143;237;29166;-70
2021/08/13 06:11:00;;;;;;;6.53;5.80;;;19.00;99.90;;;;;;492319;241;28820;-70
2021/08/13 06:13:01;;;;;;;6.20;5.60;;;19.10;99.90;;;;;;492310;241;28793;-71
2021/08/13 06:15:02;;;;;;;6.57;5.00;;;19.10;99.90;;;;;;492303;241;28815;-72
2021/08/13 06:17:03;;;;;;;5.93;5.33;;;19.20;99.90;;;;;;492327;241;29292;-71
2021/08/13 06:19:05;;;;;;;5.63;5.13;;;19.30;99.90;;;;;;492311;241;29224;-72
2021/08/13 06:21:06;;;;;;;5.33;4.83;;;19.30;99.90;;;;;;492319;241;29273;-73
2021/08/13 06:23:07;;;;;;;5.30;4.80;;;19.40;99.90;;;;;;492328;241;29266;-72
2021/08/13 06:25:08;;;;;;;5.80;4.73;;;19.50;99.90;;;;;;492305;241;28802;-72
2021/08/13 06:27:10;;;;;;;5.17;4.67;;;19.50;99.90;;;;;;492311;241;28723;-72
2021/08/13 06:29:11;;;;;;;6.87;5.97;;;19.60;99.90;;;;;;492321;241;28891;-72
2021/08/13 06:31:12;;;;;;;6.07;5.10;;;19.70;99.90;;;;;;492311;241;28809;-72
2021/08/13 06:33:14;;;;;;;6.07;5.50;;;19.80;99.90;;;;;;492302;241;28822;-72
2021/08/13 06:35:15;;;;;;;6.10;5.50;;;19.90;99.90;;;;;;492294;241;28851;-72
2021/08/13 06:37:16;;;;;;;7.50;5.20;;;19.90;99.90;;;;;;492316;241;28882;-71
2021/08/13 06:39:17;;;;;;;5.80;5.23;;;20.00;99.90;;;;;;492315;241;28853;-72
2021/08/13 06:41:19;;;;;;;5.70;4.63;;;20.10;99.90;;;;;;492295;241;29307;-71
2021/08/13 06:43:20;;;;;;;6.80;4.60;;;20.20;99.90;;;;;;492319;241;30133;-72
2021/08/13 06:45:22;;;;;;;5.30;4.80;;;20.30;99.90;;;;;;492307;241;29160;-71
2021/08/13 06:47:23;;;;;;;6.33;5.03;;;20.40;99.90;;;;;;492295;241;28719;-72
2021/08/13 06:49:24;;;;;;;5.10;4.60;;;20.40;99.90;;;;;;492292;241;28768;-72
2021/08/13 06:51:25;;;;;;;8.90;5.70;;;20.50;99.90;;;;;;492325;241;28814;-71
2021/08/13 06:53:26;;;;;;;5.97;4.63;;;20.60;99.90;;;;;;492332;241;28758;-72
2021/08/13 06:55:27;;;;;;;6.17;4.23;;;20.70;99.90;;;;;;492300;241;28723;-71
2021/08/13 06:57:29;;;;;;;5.07;4.57;;;20.80;99.90;;;;;;492285;241;28903;-72
2021/08/13 06:59:30;;;;;;;6.33;4.97;;;20.90;99.90;;;;;;492299;241;28941;-71
2021/08/13 07:01:31;;;;;;;4.63;4.23;;;20.90;99.90;;;;;;492326;241;28819;-71
2021/08/13 07:03:32;;;;;;;6.80;4.97;;;20.90;99.90;;;;;;492325;241;28767;-71
2021/08/13 07:05:34;;;;;;;6.30;4.70;;;21.00;99.90;;;;;;492317;241;29278;-72
2021/08/13 07:07:35;;;;;;;4.80;4.40;;;21.10;99.90;;;;;;492328;241;29206;-72
2021/08/13 07:09:36;;;;;;;5.33;4.80;;;21.10;99.90;;;;;;492208;241;29656;-70
2021/08/13 07:11:37;;;;;;;5.50;4.87;;;21.10;99.90;;;;;;491479;241;29709;-71
2021/08/13 07:13:39;;;;;;;6.27;4.30;;;21.00;99.90;;;;;;492316;241;28905;-71
2021/08/13 07:15:40;;;;;;;9.50;5.00;;;21.00;99.90;;;;;;492316;241;28740;-71
2021/08/13 07:17:41;;;;;;;5.90;4.87;;;21.00;99.90;;;;;;492341;241;28912;-71
2021/08/13 07:19:42;;;;;;;5.33;4.83;;;21.00;99.90;;;;;;492318;241;28779;-71
2021/08/13 07:21:44;;;;;;;5.10;4.60;;;21.00;99.90;;;;;;492304;241;28835;-71
2021/08/13 07:23:45;;;;;;;5.47;4.17;;;21.10;99.90;;;;;;492255;241;28704;-71
2021/08/13 07:25:46;;;;;;;10.53;5.27;;;21.10;99.90;;;;;;492320;241;28923;-72
2021/08/13 07:27:47;;;;;;;4.70;4.30;;;21.20;99.90;;;;;;492324;241;29336;-72
2021/08/13 07:29:49;;;;;;;4.83;4.33;;;21.20;99.90;;;;;;492271;241;29267;-71
2021/08/13 07:31:50;;;;;;;5.50;4.10;;;21.20;99.90;;;;;;492304;241;29401;-72
2021/08/13 07:33:51;;;;;;;5.63;4.60;;;21.20;99.90;;;;;;492290;237;29380;-71
2021/08/13 07:35:52;;;;;;;5.57;4.30;;;21.30;99.90;;;;;;492326;241;28691;-72
2021/08/13 07:37:54;;;;;;;4.30;3.90;;;21.30;99.90;;;;;;492320;241;28819;-72
2021/08/13 07:39:55;;;;;;;6.63;5.00;;;21.20;99.90;;;;;;492329;241;28811;-71
2021/08/13 07:41:57;;;;;;;8.00;5.27;;;21.20;99.90;;;;;;492328;241;28887;-71
2021/08/13 07:43:57;;;;;;;5.77;4.90;;;21.20;99.90;;;;;;492270;241;29164;-71
2021/08/13 07:45:59;;;;;;;5.50;4.73;;;21.20;99.90;;;;;;492198;241;28808;-73
2021/08/13 07:48:00;;;;;;;5.93;4.47;;;21.20;99.90;;;;;;492265;241;28925;-71
2021/08/13 07:50:01;;;;;;;6.17;4.80;;;21.30;99.90;;;;;;492313;241;28778;-71
2021/08/13 07:52:02;;;;;;;6.10;4.67;;;21.30;99.90;;;;;;492309;241;28715;-71
2021/08/13 07:54:04;;;;;;;6.80;5.00;;;21.30;99.90;;;;;;492291;241;29194;-72
2021/08/13 07:56:05;;;;;;;4.53;4.13;;;21.20;99.90;;;;;;492297;241;29251;-71
2021/08/13 07:58:06;;;;;;;6.43;5.30;;;21.30;99.90;;;;;;492302;241;29369;-72
2021/08/13 08:00:07;;;;;;;5.20;4.70;;;21.40;99.90;;;;;;492305;241;28897;-71
2021/08/13 08:02:09;;;;;;;6.00;4.53;;;21.40;99.90;;;;;;492273;241;28703;-71
2021/08/13 08:04:10;;;;;;;5.50;5.00;;;21.60;99.90;;;;;;492301;241;28822;-72
2021/08/13 08:06:11;;;;;;;6.50;5.40;;;21.60;99.90;;;;;;492301;241;28799;-72
2021/08/13 08:08:12;;;;;;;6.13;5.17;;;21.60;99.90;;;;;;492300;241;28812;-71
2021/08/13 08:10:14;;;;;;;6.17;5.30;;;21.60;99.90;;;;;;492325;241;28787;-72
2021/08/13 08:12:15;;;;;;;4.97;4.10;;;21.60;99.90;;;;;;492296;237;28804;-71
2021/08/13 08:14:16;;;;;;;6.30;5.00;;;21.50;99.90;;;;;;492306;241;28819;-72
2021/08/13 08:16:17;;;;;;;5.20;4.70;;;21.50;99.90;;;;;;492298;241;28735;-71
2021/08/13 08:18:22;;;;;;;7.00;4.97;;;21.60;99.90;;;;;;492293;241;29283;-71
2021/08/13 08:20:20;;;;;;;5.73;4.50;;;21.70;99.90;;;;;;492073;238;29216;-71
2021/08/13 08:22:21;;;;;;;6.30;5.20;;;21.70;99.90;;;;;;492286;241;29147;-71
2021/08/13 08:24:22;;;;;;;6.27;5.60;;;21.90;99.90;;;;;;492300;241;28840;-72
2021/08/13 08:26:24;;;;;;;8.40;6.00;;;22.00;99.90;;;;;;492308;241;28799;-72
2021/08/13 08:28:25;;;;;;;7.10;5.70;;;22.00;99.90;;;;;;492321;241;28709;-71
2021/08/13 08:30:26;;;;;;;8.30;5.17;;;22.00;99.90;;;;;;492303;241;28773;-71
2021/08/13 08:32:27;;;;;;;5.83;5.10;;;22.10;99.90;;;;;;492301;241;28829;-72
2021/08/13 08:34:29;;;;;;;5.90;5.40;;;22.10;99.90;;;;;;492313;241;28837;-72
2021/08/13 08:36:30;;;;;;;6.23;4.90;;;22.10;99.90;;;;;;492331;241;28807;-71
2021/08/13 08:38:31;;;;;;;7.50;5.30;;;22.20;99.90;;;;;;492302;241;28717;-72
2021/08/13 08:40:33;;;;;;;6.30;5.40;;;22.20;99.90;;;;;;492339;241;28777;-71
2021/08/13 08:42:34;;;;;;;5.27;4.77;;;22.20;99.90;;;;;;492332;241;29429;-71
2021/08/13 08:44:35;;;;;;;6.70;5.20;;;22.30;99.90;;;;;;492333;241;29274;-71
2021/08/13 08:46:36;;;;;;;5.23;4.73;;;22.30;99.90;;;;;;492332;241;29319;-72
2021/08/13 08:48:37;;;;;;;7.10;5.20;;;22.40;99.90;;;;;;492335;241;28830;-72
2021/08/13 08:50:39;;;;;;;6.53;5.00;;;22.40;99.90;;;;;;492333;241;28788;-72
2021/08/13 08:52:40;;;;;;;5.37;4.60;;;22.50;99.90;;;;;;492315;241;28811;-71
2021/08/13 08:54:43;;;;;;;5.90;5.20;;;22.50;99.90;;;;;;492327;241;28902;-72
2021/08/13 08:56:43;;;;;;;6.83;5.27;;;22.50;99.90;;;;;;492263;241;28772;-72
2021/08/13 08:58:44;;;;;;;5.57;5.07;;;22.40;99.90;;;;;;492328;241;28899;-72
2021/08/13 09:00:45;;;;;;;6.03;5.10;;;22.40;99.90;;;;;;492330;241;28768;-71
2021/08/13 09:02:46;;;;;;;5.77;5.10;;;22.50;99.90;;;;;;492313;241;28900;-71
2021/08/13 09:04:47;;;;;;;5.67;4.87;;;22.50;99.90;;;;;;492341;241;28817;-71
2021/08/13 09:06:49;;;;;;;6.37;5.20;;;22.60;99.90;;;;;;492328;241;29233;-72
2021/08/13 09:08:50;;;;;;;6.43;4.93;;;22.80;99.90;;;;;;492339;240;29422;-72
2021/08/13 09:10:51;;;;;;;6.20;5.10;;;22.80;99.90;;;;;;492323;241;29251;-71
2021/08/13 09:12:53;;;;;;;8.47;5.40;;;23.00;99.90;;;;;;491818;241;29349;-71
2021/08/13 09:14:54;;;;;;;6.43;5.67;;;23.00;99.90;;;;;;492332;241;28821;-71
2021/08/13 09:16:55;;;;;;;6.37;5.20;;;23.10;99.90;;;;;;492282;241;28785;-72
2021/08/13 09:18:56;;;;;;;9.10;5.43;;;23.10;99.90;;;;;;492337;241;28827;-71
2021/08/13 09:20:57;;;;;;;6.83;4.90;;;23.10;99.90;;;;;;492347;241;28812;-71
2021/08/13 09:22:59;;;;;;;5.30;4.73;;;23.10;99.90;;;;;;492317;241;28729;-72
2021/08/13 09:25:00;;;;;;;7.17;5.07;;;23.20;99.90;;;;;;492322;241;28827;-71
2021/08/13 09:27:01;;;;;;;7.90;5.20;;;23.30;99.90;;;;;;492315;241;28799;-71
2021/08/13 09:29:02;;;;;;;5.60;4.60;;;23.50;99.90;;;;;;492317;241;28829;-72
2021/08/13 09:31:04;;;;;;;9.27;5.30;;;23.50;99.90;;;;;;492306;241;29318;-71
2021/08/13 09:33:07;;;;;;;7.03;5.47;;;23.50;99.90;;;;;;492292;240;29162;-71
2021/08/13 09:35:06;;;;;;;5.60;5.10;;;23.40;99.90;;;;;;492232;241;29276;-71
2021/08/13 09:37:07;;;;;;;5.50;5.00;;;23.50;99.90;;;;;;492004;241;28807;-71
2021/08/13 09:39:09;;;;;;;7.33;5.10;;;23.50;99.90;;;;;;492059;241;28899;-71
2021/08/13 09:41:10;;;;;;;5.40;4.83;;;23.50;99.90;;;;;;492334;237;28769;-70
2021/08/13 09:43:11;;;;;;;6.13;5.23;;;23.60;99.90;;;;;;492301;241;28691;-71
2021/08/13 09:45:12;;;;;;;6.10;5.13;;;23.50;99.90;;;;;;492308;241;28877;-71
2021/08/13 09:47:14;;;;;;;6.00;5.30;;;23.60;99.90;;;;;;492333;241;28883;-72
2021/08/13 09:49:15;;;;;;;8.00;4.90;;;23.60;99.90;;;;;;492340;241;28922;-71
2021/08/13 09:51:16;;;;;;;5.43;4.40;;;23.70;99.90;;;;;;492358;241;28777;-71
2021/08/13 09:53:17;;;;;;;6.93;4.47;;;23.80;99.90;;;;;;492301;241;28793;-71
2021/08/13 09:55:19;;;;;;;5.60;5.10;;;23.80;99.90;;;;;;492113;241;29340;-71
2021/08/13 09:57:20;;;;;;;6.17;5.57;;;23.80;99.90;;;;;;492128;241;29302;-70
2021/08/13 09:59:21;;;;;;;6.80;4.70;;;24.00;99.90;;;;;;492334;241;29402;-72
2021/08/13 10:01:22;;;;;;;5.80;5.00;;;24.10;99.90;;;;;;492362;241;28777;-71
2021/08/13 10:03:24;;;;;;;5.20;4.70;;;24.30;99.90;;;;;;492317;241;28895;-71
2021/08/13 10:05:25;;;;;;;7.30;5.30;;;24.40;99.90;;;;;;492348;241;28797;-72
2021/08/13 10:07:26;;;;;;;6.27;5.23;;;24.50;99.90;;;;;;492324;240;28777;-71
2021/08/13 10:09:27;;;;;;;5.93;5.10;;;24.70;99.90;;;;;;492344;241;28808;-71
2021/08/13 10:11:29;;;;;;;6.10;5.13;;;24.70;99.90;;;;;;492341;241;28784;-71
2021/08/13 10:13:30;;;;;;;5.97;5.37;;;24.70;99.90;;;;;;492358;241;28827;-71
2021/08/13 10:15:31;;;;;;;6.00;5.50;;;24.70;99.90;;;;;;492316;241;28911;-71
2021/08/13 10:17:32;;;;;;;5.13;4.63;;;24.70;99.90;;;;;;492297;241;28764;-72
2021/08/13 10:19:34;;;;;;;5.83;4.77;;;24.80;99.90;;;;;;492311;241;29384;-71
2021/08/13 10:21:35;;;;;;;7.70;5.33;;;24.70;99.90;;;;;;492318;241;30099;-70
2021/08/13 10:23:36;;;;;;;5.40;4.83;;;24.70;99.90;;;;;;492312;241;29159;-71
2021/08/13 10:25:37;;;;;;;11.33;5.03;;;24.70;99.90;;;;;;492325;241;28846;-71
2021/08/13 10:27:39;;;;;;;5.47;4.93;;;24.80;99.90;;;;;;492286;241;28863;-71
2021/08/13 10:29:40;;;;;;;5.30;4.80;;;24.80;99.90;;;;;;492288;241;28809;-71